Time;durP1;ratioP1;P1;durP2;ratioP2;P2;SDS_P1;SDS_P2;PMS_P1;PMS_P2;Temp;Humidity;BMP_temperature;BMP_pressure;BME280_temperature;BME280_humidity;BME280_pressure;Samples;Min_cycle;Max_cycle;Signal;HPM_P1;HPM_P2
2022/06/12 00:00:25;;;;;;;11.43;10.00;;;;;;;19.53;100.00;99398.81;1717210;82;20999;-64
2022/06/12 00:02:51;;;;;;;11.73;9.80;;;;;;;19.50;100.00;99400.87;1713773;82;21074;-61
2022/06/12 00:05:19;;;;;;;12.37;9.30;;;;;;;19.49;100.00;99402.00;1716957;82;21526;-61
2022/06/12 00:07:47;;;;;;;12.35;9.55;;;;;;;19.46;100.00;99402.69;1718486;82;21035;-61
2022/06/12 00:10:16;;;;;;;12.82;9.78;;;;;;;19.38;100.00;99396.88;1714833;82;20967;-62
2022/06/12 00:12:43;;;;;;;11.83;8.78;;;;;;;19.32;100.00;99400.99;1701057;82;21048;-62
2022/06/12 00:15:11;;;;;;;10.70;9.38;;;;;;;19.31;100.00;99399.37;1726693;81;20975;-62
2022/06/12 00:17:41;;;;;;;11.03;9.03;;;;;;;19.32;100.00;99397.42;1740780;80;21051;-63
2022/06/12 00:20:10;;;;;;;15.72;10.23;;;;;;;19.30;100.00;99398.34;1714722;81;21054;-62
2022/06/12 00:22:36;;;;;;;12.73;9.55;;;;;;;19.20;100.00;99397.38;1731675;82;21972;-62
2022/06/12 00:25:06;;;;;;;11.97;9.70;;;;;;;19.17;100.00;99396.08;1726507;81;21106;-62
2022/06/12 00:27:32;;;;;;;12.15;10.08;;;;;;;19.14;100.00;99395.38;1728193;81;22189;-62
2022/06/12 00:30:01;;;;;;;11.28;9.90;;;;;;;19.14;100.00;99396.75;1723737;81;21085;-62
2022/06/12 00:32:29;;;;;;;12.25;10.13;;;;;;;19.09;100.00;99401.11;1725753;81;21110;-62
2022/06/12 00:34:57;;;;;;;15.70;10.05;;;;;;;19.02;100.00;99399.45;1737637;81;21437;-63
2022/06/12 00:37:25;;;;;;;11.08;9.88;;;;;;;18.99;100.00;99399.32;1729269;81;21129;-63
2022/06/12 00:39:52;;;;;;;11.45;10.00;;;;;;;18.98;100.00;99406.78;1728293;81;21027;-63
2022/06/12 00:42:25;;;;;;;12.53;10.03;;;;;;;18.96;100.00;99403.53;1726215;81;20990;-63
2022/06/12 00:44:52;;;;;;;16.60;10.05;;;;;;;18.95;100.00;99405.27;1727526;81;21058;-62
2022/06/12 00:47:18;;;;;;;12.25;9.23;;;;;;;18.87;100.00;99401.42;1718811;81;21034;-62
2022/06/12 00:50:00;;;;;;;13.22;9.83;;;;;;;18.89;100.00;99404.07;1725829;81;21058;-62
2022/06/12 00:52:47;;;;;;;11.95;10.08;;;;;;;18.87;100.00;99400.85;1718319;81;21109;-62
2022/06/12 00:55:44;;;;;;;11.15;9.80;;;;;;;18.85;100.00;99399.55;1730523;81;21073;-61
2022/06/12 00:58:15;;;;;;;14.15;10.40;;;;;;;18.79;100.00;99403.66;1719094;82;21134;-62
2022/06/12 01:00:42;;;;;;;10.18;9.18;;;;;;;18.71;100.00;99405.87;1732385;81;20951;-63
2022/06/12 01:03:10;;;;;;;13.22;10.35;;;;;;;18.70;100.00;99408.42;1730848;81;21081;-63
2022/06/12 01:08:22;;;;;;;14.25;11.65;;;;;;;18.64;100.00;99399.52;1734719;81;21027;-63
2022/06/12 01:10:51;;;;;;;16.65;10.93;;;;;;;18.61;100.00;99396.62;1730637;82;21007;-63
2022/06/12 01:13:25;;;;;;;13.58;10.65;;;;;;;18.54;100.00;99397.14;1734664;81;21078;-63
2022/06/12 01:15:58;;;;;;;13.25;10.10;;;;;;;18.51;100.00;99399.19;1708279;81;20987;-63
2022/06/12 01:18:29;;;;;;;12.73;10.25;;;;;;;18.51;100.00;99394.25;1725765;81;21058;-63
2022/06/12 01:21:35;;;;;;;12.40;10.30;;;;;;;18.49;100.00;99395.94;1698593;83;21482;-63
2022/06/12 01:24:29;;;;;;;12.18;10.88;;;;;;;18.45;100.00;99392.80;1725212;81;21095;-63
2022/06/12 01:27:22;;;;;;;13.70;11.20;;;;;;;18.34;100.00;99396.49;1725279;81;21039;-62
2022/06/12 01:30:23;;;;;;;13.58;11.28;;;;;;;18.20;100.00;99393.14;1721551;82;21059;-63
2022/06/12 01:32:55;;;;;;;15.40;11.60;;;;;;;18.15;100.00;99390.56;1723967;82;21150;-63
2022/06/12 01:35:42;;;;;;;13.15;10.75;;;;;;;18.14;100.00;99394.47;1718742;81;21661;-63
2022/06/12 01:38:23;;;;;;;15.80;11.15;;;;;;;18.11;100.00;99392.35;1734300;80;21514;-63
2022/06/12 01:41:01;;;;;;;12.53;10.63;;;;;;;18.05;100.00;99394.49;1699838;82;21051;-63
2022/06/12 01:43:51;;;;;;;14.38;11.00;;;;;;;18.05;100.00;99392.30;1704797;82;21055;-63
2022/06/12 01:46:31;;;;;;;12.63;11.33;;;;;;;18.04;100.00;99398.37;1693645;82;21516;-63
2022/06/12 01:49:28;;;;;;;17.70;12.37;;;;;;;17.99;100.00;99397.76;1721516;81;21081;-63
2022/06/12 01:52:13;;;;;;;17.52;12.10;;;;;;;17.92;100.00;99389.19;1726309;82;21062;-63
2022/06/12 01:54:49;;;;;;;14.33;11.28;;;;;;;17.88;100.00;99400.05;1724960;82;21031;-63
2022/06/12 01:57:36;;;;;;;15.70;11.35;;;;;;;17.87;100.00;99397.86;1722182;80;21030;-64
2022/06/12 02:00:15;;;;;;;16.05;12.58;;;;;;;17.89;100.00;99396.14;1715392;81;21905;-63
2022/06/12 02:02:53;;;;;;;12.58;11.28;;;;;;;17.89;100.00;99398.33;1722374;82;21395;-63
2022/06/12 02:05:30;;;;;;;15.38;11.85;;;;;;;17.88;100.00;99402.24;1725506;82;21056;-63
2022/06/12 02:08:08;;;;;;;;;;;;;;;17.86;100.00;99398.98;1732503;81;21049;-63
2022/06/12 02:10:52;;;;;;;16.23;12.95;;;;;;;17.83;100.00;99403.78;1719661;81;20122;-64
2022/06/12 02:13:24;;;;;;;14.65;12.78;;;;;;;17.71;100.00;99404.22;1721149;81;21409;-64
2022/06/12 02:16:08;;;;;;;17.10;13.15;;;;;;;17.70;100.00;99405.35;1727194;81;21037;-63
2022/06/12 02:18:50;;;;;;;13.93;12.50;;;;;;;17.71;100.00;99402.84;1731465;81;21126;-63
2022/06/12 02:21:31;;;;;;;18.30;13.00;;;;;;;17.72;100.00;99405.25;1729380;81;20999;-63
2022/06/12 02:24:17;;;;;;;16.48;12.73;;;;;;;17.75;100.00;99405.16;1718625;82;21558;-64
2022/06/12 02:26:57;;;;;;;15.80;13.40;;;;;;;17.78;100.00;99403.94;1726314;82;21109;-64
2022/06/12 02:29:22;;;;;;;17.15;14.60;;;;;;;17.81;100.00;99406.63;1726613;81;21100;-64
2022/06/12 02:31:51;;;;;;;20.80;15.90;;;;;;;17.81;100.00;99409.38;1730334;81;21027;-64
2022/06/12 02:34:24;;;;;;;17.75;14.05;;;;;;;17.84;100.00;99415.05;1731990;81;21028;-64
2022/06/12 02:36:54;;;;;;;18.60;14.58;;;;;;;17.86;100.00;99414.14;1735081;82;21023;-64
2022/06/12 02:39:28;;;;;;;21.82;15.08;;;;;;;17.89;100.00;99414.04;1725949;81;21137;-65
2022/06/12 02:42:08;;;;;;;22.42;18.73;;;;;;;17.92;100.00;99404.34;1728791;81;20996;-64
2022/06/12 02:45:01;;;;;;;29.55;19.73;;;;;;;18.00;100.00;99409.80;1706921;83;21054;-64
2022/06/12 02:47:32;;;;;;;29.45;20.97;;;;;;;18.04;100.00;99407.20;1731905;81;21047;-63
2022/06/12 02:49:58;;;;;;;24.05;18.15;;;;;;;18.04;100.00;99407.20;1729731;81;21066;-63
2022/06/12 02:52:48;;;;;;;24.07;19.45;;;;;;;18.08;100.00;99404.84;1714508;81;21468;-63
2022/06/12 02:55:44;;;;;;;20.92;17.35;;;;;;;18.17;100.00;99407.59;1695864;82;21070;-63
2022/06/12 02:58:35;;;;;;;18.80;15.48;;;;;;;18.26;100.00;99409.73;1714605;82;21047;-63
2022/06/12 03:01:07;;;;;;;23.83;17.62;;;;;;;18.37;100.00;99406.84;1729639;81;21493;-63
2022/06/12 03:03:42;;;;;;;22.52;18.75;;;;;;;18.49;100.00;99411.66;1728439;81;21082;-62
2022/06/12 03:06:09;;;;;;;21.40;17.95;;;;;;;18.55;100.00;99401.53;1735277;82;21485;-62
2022/06/12 03:08:43;;;;;;;21.68;17.85;;;;;;;18.62;100.00;99399.62;1739376;81;21585;-61
2022/06/12 03:11:14;;;;;;;23.38;17.73;;;;;;;18.71;100.00;99401.18;1723194;81;21003;-62
2022/06/12 03:13:41;;;;;;;21.33;17.12;;;;;;;18.87;100.00;99393.95;1721954;81;21372;-64
2022/06/12 03:16:16;;;;;;;19.50;17.02;;;;;;;19.02;100.00;99400.03;1721382;82;20959;-62
2022/06/12 03:18:50;;;;;;;20.47;16.63;;;;;;;19.08;100.00;99400.86;1723849;81;21081;-63
2022/06/12 03:21:39;;;;;;;19.87;16.25;;;;;;;19.26;100.00;99402.92;1714279;82;20971;-62
2022/06/12 03:24:46;;;;;;;23.83;16.62;;;;;;;19.43;100.00;99401.42;1693669;83;21501;-62
2022/06/12 03:27:39;;;;;;;19.50;17.25;;;;;;;19.60;100.00;99408.73;1714832;81;21028;-61
2022/06/12 03:30:35;;;;;;;25.80;16.30;;;;;;;19.72;100.00;99401.31;1707248;82;21123;-62
2022/06/12 03:33:26;;;;;;;18.95;15.75;;;;;;;19.81;100.00;99386.83;1712048;82;21106;-62
2022/06/12 03:36:03;;;;;;;20.17;16.20;;;;;;;19.84;100.00;99386.72;1706842;82;21522;-62
2022/06/12 03:38:53;;;;;;;18.95;16.75;;;;;;;19.82;100.00;99387.64;1715072;81;21067;-62
2022/06/12 03:41:31;;;;;;;19.40;16.50;;;;;;;19.96;100.00;99385.95;1713784;82;21083;-63
2022/06/12 03:44:07;;;;;;;19.92;16.12;;;;;;;20.13;100.00;99384.36;1726834;81;21522;-64
2022/06/12 03:46:47;;;;;;;20.05;17.27;;;;;;;20.28;100.00;99391.45;1715264;82;21011;-64
2022/06/12 03:49:27;;;;;;;23.57;16.37;;;;;;;20.37;100.00;99391.92;1715490;82;21098;-63
2022/06/12 03:52:14;;;;;;;19.70;17.57;;;;;;;20.40;100.00;99390.66;1711805;83;21038;-61
2022/06/12 03:54:56;;;;;;;22.05;16.77;;;;;;;20.33;100.00;99393.97;1713212;82;21066;-63
2022/06/12 03:57:52;;;;;;;20.62;16.77;;;;;;;20.41;100.00;99395.59;1722939;82;21054;-64
2022/06/12 04:00:39;;;;;;;24.18;18.75;;;;;;;20.42;100.00;99394.44;1710816;82;21522;-63
2022/06/12 04:03:13;;;;;;;25.48;17.52;;;;;;;20.49;100.00;99391.91;1713540;82;21067;-64
2022/06/12 04:05:44;;;;;;;20.65;17.20;;;;;;;20.44;100.00;99397.69;1684316;83;21016;-62
2022/06/12 04:08:28;;;;;;;25.08;18.15;;;;;;;20.64;100.00;99395.38;1701713;81;21586;-61
2022/06/12 04:10:56;;;;;;;20.23;16.00;;;;;;;20.82;100.00;99385.69;1714724;82;21610;-62
2022/06/12 04:13:23;;;;;;;22.73;17.45;;;;;;;20.88;100.00;99387.62;1729366;81;21074;-63
2022/06/12 04:16:03;;;;;;;21.15;17.02;;;;;;;21.04;100.00;99396.83;1717700;82;21023;-63
2022/06/12 04:18:30;;;;;;;20.72;16.93;;;;;;;21.15;100.00;99387.70;1711325;82;21111;-63
2022/06/12 04:21:10;;;;;;;19.57;15.78;;;;;;;21.30;100.00;99393.09;1712289;82;21078;-62
2022/06/12 04:23:54;;;;;;;18.40;15.18;;;;;;;21.44;100.00;99390.73;1726210;81;21016;-63
2022/06/12 04:26:38;;;;;;;20.25;16.37;;;;;;;21.62;100.00;99394.00;1720256;82;20990;-64
2022/06/12 04:29:19;;;;;;;17.60;15.70;;;;;;;21.83;100.00;99398.75;1702372;82;21099;-62
2022/06/12 04:31:48;;;;;;;17.30;15.25;;;;;;;21.93;100.00;99391.94;1721037;82;21023;-63
2022/06/12 04:34:34;;;;;;;20.25;16.10;;;;;;;21.95;100.00;99395.14;1718775;81;21070;-65
2022/06/12 04:37:05;;;;;;;22.10;15.37;;;;;;;21.98;100.00;99391.66;1715046;82;21007;-65
2022/06/12 04:39:33;;;;;;;19.25;14.90;;;;;;;22.29;100.00;99395.84;1712197;82;21336;-63
2022/06/12 04:42:00;;;;;;;19.40;16.25;;;;;;;22.52;100.00;99396.02;1715674;82;21011;-65
2022/06/12 04:44:27;;;;;;;18.10;15.53;;;;;;;22.65;100.00;99390.59;1725006;82;21079;-65
2022/06/12 04:46:54;;;;;;;20.43;14.75;;;;;;;22.76;100.00;99395.84;1712575;82;20991;-63
2022/06/12 04:49:26;;;;;;;17.62;13.95;;;;;;;22.76;100.00;99395.84;1716684;82;21649;-65
2022/06/12 04:51:54;;;;;;;18.98;14.20;;;;;;;22.81;100.00;99396.97;1708926;82;21008;-64
2022/06/12 04:54:21;;;;;;;19.85;15.30;;;;;;;22.94;100.00;99381.80;1720039;81;21142;-65
2022/06/12 04:56:49;;;;;;;16.60;14.20;;;;;;;23.02;100.00;99389.70;1729545;82;21494;-66
2022/06/12 04:59:16;;;;;;;21.52;14.63;;;;;;;23.30;100.00;99390.32;1718147;81;21062;-64
2022/06/12 05:01:43;;;;;;;19.70;14.70;;;;;;;23.30;100.00;99390.32;1715988;82;21514;-64
2022/06/12 05:04:10;;;;;;;20.23;15.78;;;;;;;23.21;100.00;99386.36;1709013;82;21061;-65
2022/06/12 05:06:37;;;;;;;20.23;16.23;;;;;;;23.21;100.00;99386.36;1693937;82;21000;-65
2022/06/12 05:09:06;;;;;;;22.77;15.05;;;;;;;23.41;100.00;99399.72;1676902;83;21061;-65
2022/06/12 05:11:32;;;;;;;20.05;16.00;;;;;;;23.57;100.00;99394.07;1724185;82;20960;-63
2022/06/12 05:13:59;;;;;;;23.40;15.18;;;;;;;23.53;100.00;99387.05;1720283;82;21507;-65
2022/06/12 05:16:32;;;;;;;19.90;15.10;;;;;;;23.72;100.00;99391.80;1717623;82;21015;-63
2022/06/12 05:19:00;;;;;;;22.73;15.85;;;;;;;23.83;100.00;99376.72;1721650;82;20999;-63
2022/06/12 05:21:28;;;;;;;22.20;14.38;;;;;;;23.93;100.00;99388.63;1724687;82;21015;-65
2022/06/12 05:23:56;;;;;;;18.27;13.30;;;;;;;24.14;100.00;99395.41;1708364;82;21506;-63
2022/06/12 05:29:27;;;;;;;15.10;11.30;;;;;;;24.41;100.00;99388.53;1809924;78;23469;-62
2022/06/12 05:31:54;;;;;;;14.28;10.82;;;;;;;24.52;100.00;99390.87;1724066;83;20987;-63
2022/06/12 05:34:21;;;;;;;12.53;10.00;;;;;;;24.73;100.00;99393.41;1726625;83;21022;-64
2022/06/12 05:36:48;;;;;;;14.03;10.00;;;;;;;24.89;100.00;99393.88;1696268;83;20996;-63
2022/06/12 05:39:14;;;;;;;12.35;9.08;;;;;;;25.03;100.00;99393.50;1716440;81;21104;-65
2022/06/12 05:41:43;;;;;;;13.68;9.05;;;;;;;24.89;100.00;99398.86;1709583;82;21471;-63
2022/06/12 05:44:09;;;;;;;12.30;9.00;;;;;;;24.77;100.00;99401.23;1711347;82;21560;-65
2022/06/12 05:46:35;;;;;;;12.07;8.63;;;;;;;24.76;100.00;99399.62;1717178;82;21046;-65
2022/06/12 05:49:02;;;;;;;11.83;8.55;;;;;;;24.93;100.00;99398.92;1718225;82;21099;-67
2022/06/12 05:51:30;;;;;;;11.25;8.50;;;;;;;25.06;100.00;99401.09;1713310;82;21027;-65
2022/06/12 05:53:57;;;;;;;10.18;7.87;;;;;;;25.18;100.00;99397.30;1725927;82;21115;-66
2022/06/12 05:56:25;;;;;;;8.53;7.72;;;;;;;25.26;100.00;99397.58;1719744;82;21052;-65
2022/06/12 05:58:53;;;;;;;11.48;7.53;;;;;;;25.32;100.00;99396.67;1709557;82;21609;-65
2022/06/12 06:01:20;;;;;;;11.28;7.00;;;;;;;25.55;100.00;99398.20;1711044;82;21318;-65
2022/06/12 06:03:48;;;;;;;7.92;7.22;;;;;;;25.92;100.00;99390.45;1722607;82;21105;-66
2022/06/12 06:06:24;;;;;;;8.35;7.45;;;;;;;26.07;100.00;99387.45;1723240;82;21058;-65
2022/06/12 06:08:52;;;;;;;7.72;6.83;;;;;;;26.28;100.00;99400.83;1714922;82;21596;-66
2022/06/12 06:11:19;;;;;;;7.90;7.00;;;;;;;26.17;100.00;99390.95;1710329;82;21090;-64
2022/06/12 06:13:47;;;;;;;9.15;7.55;;;;;;;26.22;100.00;99387.80;1727922;82;21090;-65
2022/06/12 06:16:15;;;;;;;9.00;7.20;;;;;;;26.29;100.00;99390.47;1714218;82;21059;-65
2022/06/12 06:18:42;;;;;;;8.23;6.97;;;;;;;26.37;100.00;99393.51;1716877;82;21588;-63
2022/06/12 06:21:11;;;;;;;8.83;6.55;;;;;;;26.28;100.00;99390.25;1721501;82;21024;-65
2022/06/12 06:23:39;;;;;;;8.15;7.20;;;;;;;26.22;100.00;99389.19;1722592;82;21151;-64
2022/06/12 06:26:06;;;;;;;9.43;6.95;;;;;;;26.20;100.00;99387.39;1712590;82;21074;-65
2022/06/12 06:28:33;;;;;;;8.90;6.83;;;;;;;26.22;100.00;99389.19;1716258;82;21099;-64
2022/06/12 06:30:59;;;;;;;8.58;7.42;;;;;;;26.34;100.00;99388.70;1705256;84;21051;-63
2022/06/12 06:33:26;;;;;;;7.45;6.37;;;;;;;26.52;100.00;99380.70;1705366;83;21059;-63
2022/06/12 06:35:52;;;;;;;8.53;6.58;;;;;;;26.88;100.00;99383.19;1707384;83;21498;-64
2022/06/12 06:38:19;;;;;;;6.75;5.95;;;;;;;27.00;100.00;99375.86;1710755;84;21662;-64
2022/06/12 06:40:46;;;;;;;9.80;5.72;;;;;;;27.16;100.00;99381.96;1752709;80;21007;-63
2022/06/12 06:43:13;;;;;;;6.40;5.75;;;;;;;27.24;100.00;99377.22;1751661;80;21015;-63
2022/06/12 06:48:25;;;;;;;7.12;5.87;;;;;;;27.48;100.00;99375.75;1743613;82;21543;-64
2022/06/12 06:50:52;;;;;;;6.87;5.60;;;;;;;27.74;100.00;99381.64;1744119;81;21517;-64
2022/06/12 06:53:18;;;;;;;7.67;5.60;;;;;;;27.57;100.00;99371.97;1743465;81;21095;-62
2022/06/12 06:55:45;;;;;;;8.10;5.17;;;;;;;27.47;100.00;99378.33;1751000;80;21057;-65
2022/06/12 06:58:16;;;;;;;8.13;5.42;;;;;;;27.18;100.00;99368.39;1741925;80;21071;-65
2022/06/12 07:00:43;;;;;;;10.55;5.30;;;;;;;27.33;100.00;99375.44;1744177;82;21014;-64
2022/06/12 07:03:10;;;;;;;6.40;5.45;;;;;;;27.49;100.00;99377.36;1746186;81;21138;-65
2022/06/12 07:05:38;;;;;;;7.33;5.33;;;;;;;27.72;100.00;99370.83;1741375;80;21031;-65
2022/06/12 07:08:05;;;;;;;7.62;5.22;;;;;;;27.85;100.00;99369.27;1749664;80;21063;-64
2022/06/12 07:10:33;;;;;;;6.10;4.65;;;;;;;28.00;100.00;99373.70;1722022;82;21533;-63
2022/06/12 07:12:59;;;;;;;6.15;4.87;;;;;;;28.03;100.00;99367.90;1732579;81;21042;-63
2022/06/12 07:15:27;;;;;;;10.98;5.12;;;;;;;28.12;100.00;99369.16;1753860;81;20975;-63
2022/06/12 07:17:56;;;;;;;5.67;5.00;;;;;;;28.18;100.00;99372.36;1746447;81;21098;-62
2022/06/12 07:20:25;;;;;;;6.35;5.33;;;;;;;28.29;100.00;99370.38;1745778;80;21054;-64
2022/06/12 07:22:52;;;;;;;6.45;5.15;;;;;;;28.16;100.00;99374.14;1752195;82;21115;-63
2022/06/12 07:25:19;;;;;;;6.42;4.90;;;;;;;28.08;100.00;99363.36;1747110;82;21077;-63
2022/06/12 07:27:45;;;;;;;5.78;4.40;;;;;;;28.17;100.00;99370.16;1718331;82;21071;-63
2022/06/12 07:30:17;;;;;;;5.60;4.47;;;;;;;28.49;100.00;99377.16;1766340;80;21023;-65
2022/06/12 07:32:43;;;;;;;6.65;4.40;;;;;;;28.53;100.00;99367.36;1747913;80;21511;-64
2022/06/12 07:35:10;;;;;;;7.30;4.53;;;;;;;28.46;100.00;99371.56;1750578;80;20987;-63
2022/06/12 07:37:36;;;;;;;5.92;3.92;;;;;;;28.41;100.00;99368.56;1763090;80;20980;-63
2022/06/12 07:40:09;;;;;;;7.17;6.10;;;;;;;28.42;100.00;99363.17;1770661;81;21405;-65
2022/06/12 07:42:36;;;;;;;36.90;22.62;;;;;;;28.49;100.00;99366.56;1747343;80;21050;-65
2022/06/12 07:45:04;;;;;;;14.53;9.58;;;;;;;28.61;100.00;99361.97;1749003;80;21486;-64
2022/06/12 07:47:32;;;;;;;5.60;4.30;;;;;;;28.79;100.00;99361.98;1762590;81;21998;-66
2022/06/12 07:50:00;;;;;;;6.42;3.62;;;;;;;28.92;100.00;99372.35;1760668;80;20996;-65
2022/06/12 07:52:26;;;;;;;9.38;4.20;;;;;;;28.89;100.00;99370.95;1763834;81;21063;-63
2022/06/12 07:54:55;;;;;;;5.33;3.80;;;;;;;28.80;100.00;99358.78;1756606;80;21055;-65
2022/06/12 07:57:23;;;;;;;13.20;4.78;;;;;;;28.76;100.00;99359.98;1773641;80;21445;-64
2022/06/12 07:59:49;;;;;;;6.80;3.40;;;;;;;28.78;100.00;99363.98;1752536;81;21075;-63
2022/06/12 08:02:16;;;;;;;5.53;3.08;;;;;;;28.85;100.00;99356.96;1746090;81;21023;-63
2022/06/12 08:04:43;;;;;;;5.70;3.45;;;;;;;28.90;100.00;99355.16;1748623;81;21043;-64
2022/06/12 08:07:10;;;;;;;5.95;3.60;;;;;;;29.01;100.00;99360.73;1760799;80;21831;-65
2022/06/12 08:09:36;;;;;;;4.30;3.58;;;;;;;29.16;99.34;99354.67;1766915;81;21055;-64
2022/06/12 08:12:05;;;;;;;4.85;3.27;;;;;;;29.12;100.00;99353.87;1750629;81;21502;-64
2022/06/12 08:14:33;;;;;;;4.12;3.33;;;;;;;29.04;99.59;99367.73;1760280;80;21070;-66
2022/06/12 08:17:00;;;;;;;4.20;3.20;;;;;;;29.04;100.00;99364.12;1702287;82;21068;-66
2022/06/12 08:22:11;;;;;;;5.03;3.30;;;;;;;29.55;100.00;99354.55;1745093;80;21012;-64
2022/06/12 08:24:40;;;;;;;7.33;3.72;;;;;;;29.95;96.57;99368.59;1680589;84;21083;-64
2022/06/12 08:27:06;;;;;;;8.10;3.50;;;;;;;29.96;91.05;99370.80;1711562;83;20991;-65
2022/06/12 08:29:33;;;;;;;4.60;3.80;;;;;;;29.68;91.72;99362.51;1678275;85;21081;-62
2022/06/12 08:32:14;;;;;;;5.28;3.80;;;;;;;29.54;94.51;99371.80;1745990;80;21001;-64
2022/06/12 08:34:45;;;;;;;7.85;3.95;;;;;;;29.56;95.93;99366.56;1742331;81;21003;-64
2022/06/12 08:37:25;;;;;;;4.17;3.62;;;;;;;29.67;97.05;99367.31;1729409;81;20953;-64
2022/06/12 08:39:51;;;;;;;5.50;4.12;;;;;;;29.57;98.29;99358.36;1745899;81;21549;-63
2022/06/12 08:42:24;;;;;;;5.60;3.70;;;;;;;29.55;98.69;99363.55;1743658;82;21004;-64
2022/06/12 08:45:19;;;;;;;5.30;3.65;;;;;;;29.60;98.93;99363.95;1747203;80;21024;-65
2022/06/12 08:48:22;;;;;;;5.62;3.70;;;;;;;29.63;100.00;99364.53;1744847;82;21041;-66
2022/06/12 08:50:55;;;;;;;3.58;3.10;;;;;;;29.81;100.00;99374.85;1747578;81;20948;-64
2022/06/12 08:53:36;;;;;;;5.90;3.85;;;;;;;29.98;99.54;99365.55;1734738;82;21713;-71
2022/06/12 08:56:14;;;;;;;5.70;3.92;;;;;;;30.02;92.14;99362.92;1728357;81;21004;-65
2022/06/12 08:59:06;;;;;;;4.00;3.47;;;;;;;29.73;99.69;99371.28;1728934;81;21090;-67
2022/06/12 09:01:36;;;;;;;5.35;3.50;;;;;;;29.53;100.00;99370.19;1734621;81;21511;-65
2022/06/12 09:04:03;;;;;;;5.28;3.60;;;;;;;29.30;99.94;99371.30;1756836;80;21036;-67
2022/06/12 09:06:50;;;;;;;7.25;4.00;;;;;;;29.10;99.04;99366.11;1719520;82;21527;-64
2022/06/12 09:09:39;;;;;;;5.90;4.28;;;;;;;28.89;100.00;99367.56;1751076;82;21059;-62
2022/06/12 09:12:24;;;;;;;6.15;4.50;;;;;;;28.72;100.00;99362.79;1747361;81;20978;-67
2022/06/12 09:15:03;;;;;;;6.35;3.80;;;;;;;28.71;100.00;99357.58;1741157;80;20990;-64
2022/06/12 09:17:57;;;;;;;5.87;4.00;;;;;;;28.85;100.00;99354.75;1744373;82;21000;-64
2022/06/12 09:20:51;;;;;;;7.03;4.40;;;;;;;28.86;100.00;99365.57;1736597;81;20970;-66
2022/06/12 09:23:38;;;;;;;5.25;4.37;;;;;;;28.66;100.00;99356.75;1744286;80;21012;-65
2022/06/12 09:26:23;;;;;;;7.22;4.80;;;;;;;28.59;100.00;99352.55;1741095;80;21004;-65
2022/06/12 09:29:22;;;;;;;7.92;5.05;;;;;;;28.61;100.00;99358.57;1724543;82;21137;-64
2022/06/12 09:32:02;;;;;;;7.65;4.55;;;;;;;28.52;100.00;99348.98;1741568;81;21004;-64
2022/06/12 09:34:35;;;;;;;6.58;4.45;;;;;;;28.67;100.00;99356.19;1754134;80;21023;-65
2022/06/12 09:40:37;;;;;;;8.73;4.70;;;;;;;29.04;100.00;99359.33;1706842;84;21019;-65
2022/06/12 09:43:38;;;;;;;7.62;4.75;;;;;;;29.11;99.69;99351.50;1707022;83;21063;-66
2022/06/12 09:46:14;;;;;;;5.35;4.50;;;;;;;28.91;100.00;99342.73;1704248;83;21362;-64
2022/06/12 09:49:04;;;;;;;7.10;4.72;;;;;;;28.88;100.00;99341.34;1727125;82;21079;-64
2022/06/12 09:51:56;;;;;;;7.87;4.85;;;;;;;29.06;100.00;99342.90;1705713;83;21453;-64
2022/06/12 09:54:57;;;;;;;8.35;4.87;;;;;;;29.15;97.17;99345.28;1703930;84;21008;-65
2022/06/12 09:57:51;;;;;;;5.87;4.35;;;;;;;28.87;100.00;99337.77;1682638;84;21796;-67
2022/06/12 10:00:35;;;;;;;8.70;4.83;;;;;;;28.71;100.00;99332.38;1707613;83;21023;-67
2022/06/12 10:03:39;;;;;;;5.97;3.80;;;;;;;28.80;100.00;99330.78;1702053;83;21553;-67
2022/06/12 10:06:22;;;;;;;5.75;4.80;;;;;;;28.89;100.00;99326.94;1697444;84;20980;-66
2022/06/12 10:09:10;;;;;;;6.85;4.80;;;;;;;28.85;99.00;99330.34;1699813;83;21079;-67
2022/06/12 10:11:45;;;;;;;5.87;4.40;;;;;;;28.77;94.96;99328.75;1752355;81;20992;-67
2022/06/12 10:14:33;;;;;;;6.90;4.87;;;;;;;28.80;94.78;99325.17;1745399;81;21582;-68
2022/06/12 10:17:22;;;;;;;5.87;4.58;;;;;;;28.91;93.55;99323.13;1747214;81;20944;-68
2022/06/12 10:20:07;;;;;;;5.60;4.40;;;;;;;29.02;95.32;99320.28;1739802;81;21000;-68
2022/06/12 10:22:44;;;;;;;6.47;4.80;;;;;;;29.09;95.89;99325.87;1749306;81;21106;-65
2022/06/12 10:25:33;;;;;;;5.55;4.62;;;;;;;29.01;90.64;99330.72;1753022;81;20997;-66
2022/06/12 10:28:08;;;;;;;8.33;4.97;;;;;;;28.91;88.98;99320.95;1746098;81;21064;-66
2022/06/12 10:30:46;;;;;;;5.37;4.85;;;;;;;28.87;91.35;99320.95;1764555;79;21047;-66
2022/06/12 10:33:31;;;;;;;7.53;5.25;;;;;;;28.91;98.96;99316.11;1758424;80;21095;-66
2022/06/12 10:36:02;;;;;;;6.62;4.72;;;;;;;29.02;95.85;99325.89;1756030;80;20961;-67
2022/06/12 10:38:32;;;;;;;7.28;4.90;;;;;;;28.78;95.89;99319.75;1763999;80;21018;-64
2022/06/12 10:41:02;;;;;;;6.78;4.47;;;;;;;28.49;99.05;99316.16;1723623;82;20971;-64
2022/06/12 10:43:37;;;;;;;5.60;4.20;;;;;;;28.42;100.00;99315.58;1697604;83;21554;-67
2022/06/12 10:46:20;;;;;;;6.37;4.50;;;;;;;28.56;100.00;99310.56;1698869;83;21530;-67
2022/06/12 10:49:07;;;;;;;8.68;5.50;;;;;;;28.76;100.00;99304.77;1724086;82;21082;-66
2022/06/12 10:51:39;;;;;;;5.37;4.37;;;;;;;29.03;100.00;99301.68;1707590;82;21019;-66
2022/06/12 10:54:17;;;;;;;6.92;4.58;;;;;;;29.21;96.37;99312.02;1718505;82;21046;-66
2022/06/12 10:57:04;;;;;;;6.50;3.72;;;;;;;29.10;96.40;99322.67;1706938;83;21546;-67
2022/06/12 10:59:56;;;;;;;7.33;4.25;;;;;;;28.87;92.61;99315.95;1716714;83;21110;-66
2022/06/12 11:02:34;;;;;;;5.67;4.35;;;;;;;28.38;94.63;99317.58;1716908;82;21082;-65
2022/06/12 11:05:10;;;;;;;6.80;4.75;;;;;;;28.06;100.00;99318.94;1714286;82;21448;-63
2022/06/12 11:08:23;;;;;;;5.42;4.50;;;;;;;27.86;98.95;99321.13;1715882;82;21122;-66
2022/06/12 11:11:15;;;;;;;5.05;4.50;;;;;;;27.65;100.00;99313.49;1723686;83;21581;-65
2022/06/12 11:14:27;;;;;;;4.85;4.15;;;;;;;27.46;100.00;99322.21;1712653;82;21063;-66
2022/06/12 11:17:12;;;;;;;6.30;4.28;;;;;;;27.38;100.00;99317.19;1714422;82;21054;-62
2022/06/12 11:20:07;;;;;;;6.25;4.75;;;;;;;27.37;100.00;99314.19;1711568;83;21557;-62
2022/06/12 11:22:46;;;;;;;4.92;4.25;;;;;;;27.49;100.00;99308.88;1713362;82;21393;-64
2022/06/12 11:25:33;;;;;;;6.87;4.50;;;;;;;27.71;100.00;99311.90;1694756;83;21007;-63
2022/06/12 11:28:34;;;;;;;7.12;4.65;;;;;;;27.90;100.00;99303.75;1697292;83;21012;-64
2022/06/12 11:31:38;;;;;;;5.87;4.22;;;;;;;28.18;100.00;99300.41;1710735;83;21027;-66
2022/06/12 11:34:34;;;;;;;6.30;4.55;;;;;;;28.40;100.00;99298.99;1714273;83;21532;-66
2022/06/12 11:37:35;;;;;;;5.50;4.07;;;;;;;28.50;100.00;99304.58;1716606;83;21089;-65
2022/06/12 11:40:24;;;;;;;7.25;4.55;;;;;;;28.38;100.00;99295.18;1705325;83;21046;-65
2022/06/12 11:43:05;;;;;;;6.65;4.45;;;;;;;28.16;100.00;99297.19;1703235;83;21058;-64
2022/06/12 11:45:50;;;;;;;5.17;4.40;;;;;;;28.04;100.00;99290.58;1711926;83;20959;-64
2022/06/12 11:49:05;;;;;;;6.75;4.25;;;;;;;28.04;100.00;99288.38;1717318;83;21361;-63
2022/06/12 11:51:59;;;;;;;5.90;4.60;;;;;;;27.99;100.00;99283.97;1759010;79;21026;-64
2022/06/12 11:54:39;;;;;;;6.65;4.03;;;;;;;27.78;100.00;99290.13;1772639;80;21090;-64
2022/06/12 11:57:38;;;;;;;6.50;4.30;;;;;;;27.66;100.00;99282.95;1760714;80;21129;-63
2022/06/12 12:00:16;;;;;;;4.80;3.67;;;;;;;27.59;100.00;99274.55;1754437;80;20980;-64
2022/06/12 12:03:42;;;;;;;3.80;3.45;;;;;;;27.56;100.00;99272.55;1735522;81;21091;-64
2022/06/12 12:06:57;;;;;;;5.90;3.83;;;;;;;27.53;100.00;99274.71;1764945;80;20995;-64
2022/06/12 12:09:55;;;;;;;5.22;3.90;;;;;;;27.49;100.00;99271.13;1764831;80;21052;-64
2022/06/12 12:12:29;;;;;;;6.12;3.70;;;;;;;27.61;100.00;99275.74;1780047;80;21517;-63
2022/06/12 12:14:59;;;;;;;5.45;3.95;;;;;;;27.79;100.00;99270.17;1774229;79;21054;-64
2022/06/12 12:17:29;;;;;;;5.00;3.83;;;;;;;27.96;100.00;99255.40;1762627;80;21598;-65